Time;durP1;ratioP1;P1;durP2;ratioP2;P2;SDS_P1;SDS_P2;PMS_P1;PMS_P2;Temp;Humidity;BMP_temperature;BMP_pressure;BME280_temperature;BME280_humidity;BME280_pressure;Samples;Min_cycle;Max_cycle;Signal;HPM_P1;HPM_P2
2021/05/08 00:01:18;;;;;;;10.70;7.15;;;13.80;83.60;;;;;;5137169;27;20031;-41
2021/05/08 00:03:44;;;;;;;15.95;6.82;;;13.80;83.50;;;;;;5137089;27;20027;-41
2021/05/08 00:06:11;;;;;;;9.35;6.47;;;13.80;83.50;;;;;;5137026;27;20058;-40
2021/05/08 00:08:37;;;;;;;9.35;5.45;;;13.90;83.50;;;;;;5137224;27;20038;-41
2021/05/08 00:11:03;;;;;;;10.63;6.78;;;13.90;83.50;;;;;;5137137;27;20314;-41
2021/05/08 00:13:29;;;;;;;10.27;6.50;;;13.90;83.60;;;;;;5137048;27;20038;-41
2021/05/08 00:15:55;;;;;;;7.90;6.25;;;13.90;83.50;;;;;;5136939;27;20035;-41
2021/05/08 00:18:20;;;;;;;8.85;6.05;;;13.90;83.30;;;;;;5136997;27;20038;-41
2021/05/08 00:20:46;;;;;;;8.07;6.38;;;13.90;83.40;;;;;;5136835;27;20326;-41
2021/05/08 00:23:12;;;;;;;11.45;5.63;;;13.90;83.50;;;;;;5136662;27;20407;-40
2021/05/08 00:25:38;;;;;;;11.55;5.90;;;14.00;83.50;;;;;;5137003;27;20029;-40
2021/05/08 00:28:04;;;;;;;10.65;6.00;;;14.00;83.30;;;;;;5136944;27;20035;-41
2021/05/08 00:30:29;;;;;;;8.13;5.40;;;14.00;83.20;;;;;;5136758;27;20065;-41
2021/05/08 00:32:55;;;;;;;16.13;6.75;;;14.00;83.10;;;;;;5136458;27;20028;-41
2021/05/08 00:35:21;;;;;;;11.57;6.47;;;14.00;83.00;;;;;;5137042;27;20033;-41
2021/05/08 00:37:47;;;;;;;9.15;6.50;;;14.00;82.80;;;;;;5136299;27;20074;-40
2021/05/08 00:40:13;;;;;;;11.15;5.93;;;14.00;82.50;;;;;;5137057;27;20072;-41
2021/05/08 00:42:38;;;;;;;11.45;6.75;;;14.00;82.40;;;;;;5136307;28;20059;-40
2021/05/08 00:45:08;;;;;;;9.95;6.45;;;14.00;82.30;;;;;;5136811;28;20066;-41
2021/05/08 00:47:47;;;;;;;9.20;6.55;;;13.90;82.40;;;;;;5136521;28;20414;-41
2021/05/08 00:50:15;;;;;;;10.48;6.00;;;13.90;82.40;;;;;;5136957;28;20398;-41
2021/05/08 00:52:41;;;;;;;12.65;6.55;;;13.90;82.20;;;;;;5136262;28;20048;-41
2021/05/08 00:55:07;;;;;;;9.25;6.75;;;13.80;82.30;;;;;;5136886;28;20031;-41
2021/05/08 00:57:34;;;;;;;13.38;7.00;;;13.80;82.60;;;;;;5136489;28;20130;-41
2021/05/08 01:00:00;;;;;;;10.40;6.55;;;13.80;82.60;;;;;;5136923;28;20054;-41
2021/05/08 01:02:25;;;;;;;10.13;6.97;;;13.80;82.70;;;;;;5136362;28;20027;-41
2021/05/08 01:04:51;;;;;;;11.25;6.97;;;13.80;82.70;;;;;;5139340;27;20156;-40
2021/05/08 01:07:18;;;;;;;9.90;6.75;;;13.80;82.80;;;;;;5140513;27;20034;-41
2021/05/08 01:09:45;;;;;;;11.25;6.70;;;13.80;82.60;;;;;;5140470;27;20403;-41
2021/05/08 01:12:11;;;;;;;11.82;6.55;;;13.80;82.60;;;;;;5140562;27;20036;-41
2021/05/08 01:14:37;;;;;;;11.20;7.15;;;13.70;82.60;;;;;;5140391;27;20429;-41
2021/05/08 01:17:03;;;;;;;8.85;5.65;;;13.70;82.60;;;;;;5140634;27;20042;-40
2021/05/08 01:19:31;;;;;;;13.20;6.65;;;13.70;82.40;;;;;;5140428;27;20373;-41
2021/05/08 01:21:57;;;;;;;9.23;6.60;;;13.70;82.50;;;;;;5140309;27;20031;-42
2021/05/08 01:24:22;;;;;;;12.32;6.30;;;13.70;82.30;;;;;;5140328;27;20351;-41
2021/05/08 01:26:48;;;;;;;8.50;6.05;;;13.70;82.30;;;;;;5140147;27;20410;-41
2021/05/08 01:29:13;;;;;;;9.02;5.97;;;13.70;82.00;;;;;;5140095;27;20083;-41
2021/05/08 01:31:39;;;;;;;10.68;6.30;;;13.70;82.00;;;;;;5140669;27;20104;-41
2021/05/08 01:34:05;;;;;;;9.30;6.30;;;13.70;82.10;;;;;;5140064;27;20135;-41
2021/05/08 01:36:32;;;;;;;10.93;6.82;;;13.60;82.10;;;;;;5140096;27;20384;-40
2021/05/08 01:38:59;;;;;;;12.52;6.65;;;13.60;82.10;;;;;;5140086;27;20031;-41
2021/05/08 01:41:25;;;;;;;9.07;6.22;;;13.60;82.20;;;;;;5140302;27;20035;-40
2021/05/08 01:43:51;;;;;;;8.52;6.03;;;13.60;82.30;;;;;;5139794;27;20030;-41
2021/05/08 01:46:16;;;;;;;11.32;6.05;;;13.60;82.40;;;;;;5139605;27;20023;-41
2021/05/08 01:48:42;;;;;;;9.23;6.35;;;13.60;82.30;;;;;;5139696;27;20035;-41
2021/05/08 01:51:08;;;;;;;11.30;6.57;;;13.60;82.40;;;;;;5140323;27;20027;-41
2021/05/08 01:53:34;;;;;;;9.27;6.47;;;13.60;82.40;;;;;;5139504;27;20043;-41
2021/05/08 01:55:59;;;;;;;9.82;6.43;;;13.60;82.30;;;;;;5139791;27;20027;-40
2021/05/08 01:58:25;;;;;;;7.72;5.57;;;13.60;82.40;;;;;;5139414;27;20027;-41
2021/05/08 02:00:51;;;;;;;11.32;6.32;;;13.60;82.30;;;;;;5139854;27;20038;-41
2021/05/08 02:03:17;;;;;;;14.85;6.65;;;13.60;82.40;;;;;;5139393;27;20020;-41
2021/05/08 02:05:45;;;;;;;10.00;5.97;;;13.60;82.30;;;;;;5139568;27;20035;-41
2021/05/08 02:08:11;;;;;;;11.15;6.35;;;13.60;82.40;;;;;;5139543;27;20047;-40
2021/05/08 02:10:40;;;;;;;10.20;6.53;;;13.60;82.60;;;;;;5139639;27;20024;-41
2021/05/08 02:13:07;;;;;;;12.38;6.60;;;13.60;82.60;;;;;;5139128;27;20058;-41
2021/05/08 02:15:33;;;;;;;10.73;6.20;;;13.60;82.80;;;;;;5138887;27;20417;-41
2021/05/08 02:18:00;;;;;;;9.02;6.38;;;13.60;82.90;;;;;;5139169;27;20029;-41
2021/05/08 02:20:31;;;;;;;10.13;6.30;;;13.60;82.90;;;;;;5139164;27;20410;-41
2021/05/08 02:22:59;;;;;;;10.27;6.32;;;13.60;83.00;;;;;;5139140;27;20031;-40
2021/05/08 02:25:26;;;;;;;9.50;6.00;;;13.70;83.00;;;;;;5139259;27;20031;-41
2021/05/08 02:27:52;;;;;;;8.68;6.03;;;13.70;83.00;;;;;;5138758;27;20035;-41
2021/05/08 02:30:29;;;;;;;9.43;6.25;;;13.70;83.00;;;;;;5139427;27;20023;-40
2021/05/08 02:32:55;;;;;;;9.27;5.82;;;13.70;83.10;;;;;;5138802;27;20038;-41
2021/05/08 02:35:22;;;;;;;9.50;6.50;;;13.70;83.10;;;;;;5139303;27;20031;-41
2021/05/08 02:37:48;;;;;;;8.77;5.72;;;13.70;83.00;;;;;;5138531;27;20051;-41
2021/05/08 02:40:17;;;;;;;10.30;6.18;;;13.70;83.00;;;;;;5139260;27;20077;-41
2021/05/08 02:42:43;;;;;;;11.65;6.85;;;13.70;83.10;;;;;;5138408;27;20039;-41
2021/05/08 02:45:10;;;;;;;12.82;6.80;;;13.70;83.00;;;;;;5138964;27;20038;-40
2021/05/08 02:47:44;;;;;;;17.60;6.78;;;13.70;83.00;;;;;;5138313;27;20031;-41
2021/05/08 02:50:12;;;;;;;11.43;6.45;;;13.70;83.10;;;;;;5138872;27;20026;-41
2021/05/08 02:52:38;;;;;;;12.65;6.70;;;13.80;83.10;;;;;;5138284;27;20484;-41
2021/05/08 02:55:05;;;;;;;9.32;5.93;;;13.80;83.00;;;;;;5138664;27;20038;-41
2021/05/08 02:57:31;;;;;;;14.35;6.90;;;13.70;83.00;;;;;;5138221;27;20110;-41
2021/05/08 02:59:57;;;;;;;12.73;7.03;;;13.80;83.00;;;;;;5138654;27;20164;-41
2021/05/08 03:02:23;;;;;;;13.55;8.15;;;13.80;82.90;;;;;;5138359;27;20038;-41
2021/05/08 03:04:49;;;;;;;13.85;7.97;;;13.80;83.00;;;;;;5138640;27;20019;-41
2021/05/08 03:07:14;;;;;;;16.23;9.00;;;13.80;83.00;;;;;;5138498;27;20326;-41
2021/05/08 03:09:40;;;;;;;15.50;8.88;;;13.80;83.10;;;;;;5138235;27;20405;-40
2021/05/08 03:12:07;;;;;;;16.33;8.60;;;13.80;83.20;;;;;;5138474;27;20110;-40
2021/05/08 03:14:34;;;;;;;12.45;8.25;;;13.80;83.30;;;;;;5137957;27;20287;-41
2021/05/08 03:16:59;;;;;;;14.45;9.57;;;13.80;83.40;;;;;;5138452;27;20375;-41
2021/05/08 03:19:25;;;;;;;17.17;8.77;;;13.80;83.50;;;;;;5137665;27;20055;-41
2021/05/08 03:21:51;;;;;;;13.20;8.63;;;13.90;83.70;;;;;;5137930;27;20031;-40
2021/05/08 03:24:17;;;;;;;12.48;7.78;;;13.90;83.80;;;;;;5137609;27;20023;-40
2021/05/08 03:26:43;;;;;;;12.75;8.35;;;13.80;83.70;;;;;;5138081;27;20030;-40
2021/05/08 03:29:08;;;;;;;13.80;7.75;;;13.90;83.80;;;;;;5137484;27;20027;-41
2021/05/08 03:31:34;;;;;;;11.60;8.25;;;13.90;83.80;;;;;;5138253;27;20031;-41
2021/05/08 03:34:00;;;;;;;14.23;7.22;;;13.80;83.70;;;;;;5137585;27;20028;-41
2021/05/08 03:36:26;;;;;;;10.68;6.63;;;13.90;83.70;;;;;;5137727;27;20107;-40
2021/05/08 03:38:52;;;;;;;9.90;6.65;;;13.90;83.60;;;;;;5137707;27;20319;-41
2021/05/08 03:41:18;;;;;;;11.20;6.63;;;13.90;83.70;;;;;;5138046;27;20106;-40
2021/05/08 03:43:44;;;;;;;10.57;6.28;;;13.90;83.90;;;;;;5137461;27;20161;-41
2021/05/08 03:46:10;;;;;;;11.25;6.63;;;14.00;83.90;;;;;;5137730;27;20023;-40
2021/05/08 03:48:37;;;;;;;12.07;7.35;;;14.00;83.90;;;;;;5137319;27;20026;-41
2021/05/08 03:51:03;;;;;;;13.23;7.63;;;14.00;83.70;;;;;;5137455;27;20031;-41
2021/05/08 03:53:29;;;;;;;12.88;7.75;;;14.00;83.60;;;;;;5137277;27;20030;-41
2021/05/08 03:55:55;;;;;;;15.93;7.57;;;14.00;83.50;;;;;;5137628;27;20377;-40
2021/05/08 03:58:31;;;;;;;14.45;8.20;;;14.00;83.60;;;;;;5137210;27;20032;-41
2021/05/08 04:00:59;;;;;;;12.80;7.78;;;14.00;83.60;;;;;;5137495;27;20055;-41
2021/05/08 04:03:25;;;;;;;13.30;7.32;;;14.00;83.60;;;;;;5137138;27;20035;-40
2021/05/08 04:05:51;;;;;;;13.88;8.07;;;14.00;83.60;;;;;;5137341;27;20077;-40
2021/05/08 04:08:17;;;;;;;12.30;7.22;;;13.90;83.70;;;;;;5136651;27;20034;-40
2021/05/08 04:10:50;;;;;;;13.25;7.95;;;13.90;83.70;;;;;;5137372;27;20050;-40
2021/05/08 04:13:16;;;;;;;11.75;7.22;;;13.90;83.80;;;;;;5136842;27;20035;-41
2021/05/08 04:15:42;;;;;;;13.98;8.50;;;13.90;84.10;;;;;;5136938;27;20033;-40
2021/05/08 04:18:08;;;;;;;15.07;7.95;;;13.90;84.20;;;;;;5136665;27;20439;-41
2021/05/08 04:20:34;;;;;;;13.43;8.30;;;13.90;84.20;;;;;;5137228;27;20035;-40
2021/05/08 04:23:00;;;;;;;13.27;8.32;;;13.90;84.40;;;;;;5136504;27;20070;-42
2021/05/08 04:25:27;;;;;;;20.58;10.50;;;13.90;84.40;;;;;;5136962;27;20023;-41
2021/05/08 04:27:53;;;;;;;25.17;11.60;;;13.90;84.60;;;;;;5136333;27;20043;-41
2021/05/08 04:30:19;;;;;;;12.60;9.60;;;13.90;84.80;;;;;;5137098;27;20027;-41
2021/05/08 04:32:45;;;;;;;18.98;10.40;;;13.90;84.90;;;;;;5136588;27;20039;-41
2021/05/08 04:35:11;;;;;;;16.45;9.30;;;13.80;85.00;;;;;;5136642;27;20053;-41
2021/05/08 04:37:37;;;;;;;15.73;10.68;;;13.90;85.10;;;;;;5136179;27;20108;-41
2021/05/08 04:40:03;;;;;;;17.27;9.23;;;13.90;85.20;;;;;;5136503;27;20301;-41
2021/05/08 04:42:29;;;;;;;17.65;9.77;;;13.80;85.20;;;;;;5136213;27;20422;-41
2021/05/08 04:44:55;;;;;;;16.40;11.18;;;13.80;85.20;;;;;;5136887;28;20056;-41
2021/05/08 04:47:21;;;;;;;14.70;9.40;;;13.90;85.40;;;;;;5136271;28;20023;-41
2021/05/08 04:49:47;;;;;;;22.33;11.32;;;13.80;85.40;;;;;;5136765;28;20046;-41
2021/05/08 04:52:13;;;;;;;18.48;12.05;;;13.80;85.80;;;;;;5136789;28;20110;-40
2021/05/08 04:54:39;;;;;;;22.80;12.68;;;13.80;86.00;;;;;;5136302;28;20107;-41
2021/05/08 04:57:05;;;;;;;17.92;10.85;;;13.80;86.20;;;;;;5136664;28;20045;-41
2021/05/08 04:59:31;;;;;;;17.23;11.38;;;13.80;86.30;;;;;;5136349;28;20086;-41
2021/05/08 05:01:57;;;;;;;20.20;12.30;;;13.80;86.40;;;;;;5136402;28;20039;-41
2021/05/08 05:04:23;;;;;;;20.17;12.93;;;13.80;86.30;;;;;;5136289;28;20050;-41
2021/05/08 05:06:48;;;;;;;20.15;11.32;;;13.80;86.30;;;;;;5136475;28;20028;-41
2021/05/08 05:09:14;;;;;;;20.33;12.00;;;13.80;86.30;;;;;;5135998;28;20058;-41
2021/05/08 05:11:39;;;;;;;18.58;10.98;;;13.80;86.20;;;;;;5136729;28;20039;-41
2021/05/08 05:14:06;;;;;;;20.27;11.65;;;13.80;86.20;;;;;;5136469;28;20036;-41
2021/05/08 05:16:32;;;;;;;19.80;10.48;;;13.80;86.40;;;;;;5136187;28;20041;-40
2021/05/08 05:18:58;;;;;;;19.35;11.65;;;13.80;86.40;;;;;;5135850;28;20114;-40
2021/05/08 05:21:23;;;;;;;23.13;14.23;;;13.80;86.60;;;;;;5136499;28;20039;-40
2021/05/08 05:23:49;;;;;;;16.75;11.43;;;13.80;87.10;;;;;;5130978;28;20039;-41
2021/05/08 05:26:15;;;;;;;16.02;11.85;;;13.80;87.00;;;;;;5136048;28;20260;-39
2021/05/08 05:28:40;;;;;;;18.98;12.52;;;13.70;87.10;;;;;;5135789;28;20027;-40
2021/05/08 05:31:06;;;;;;;20.60;13.73;;;13.80;87.30;;;;;;5135933;28;20324;-40
2021/05/08 05:33:32;;;;;;;25.50;14.20;;;13.80;87.50;;;;;;5135543;28;20042;-40
2021/05/08 05:35:58;;;;;;;26.52;15.02;;;13.80;87.60;;;;;;5135943;28;20043;-40
2021/05/08 05:38:24;;;;;;;17.75;11.60;;;13.80;87.70;;;;;;5135821;28;20035;-40
2021/05/08 05:40:53;;;;;;;18.15;10.40;;;13.80;87.60;;;;;;5135863;28;20039;-40
2021/05/08 05:43:20;;;;;;;12.43;9.23;;;13.80;87.40;;;;;;5135615;28;20032;-40
2021/05/08 05:45:46;;;;;;;16.73;10.98;;;13.80;87.40;;;;;;5135447;28;20092;-40
2021/05/08 05:48:12;;;;;;;17.13;11.27;;;13.80;87.40;;;;;;5135629;28;20035;-40
2021/05/08 05:50:39;;;;;;;12.85;8.45;;;13.80;87.70;;;;;;5136278;27;20479;-40
2021/05/08 05:53:06;;;;;;;12.82;7.93;;;13.80;87.50;;;;;;5139515;27;20034;-40
2021/05/08 05:55:32;;;;;;;16.23;10.15;;;13.80;87.50;;;;;;5139651;27;20035;-40
2021/05/08 05:57:58;;;;;;;13.35;9.15;;;13.70;87.60;;;;;;5139061;27;20104;-40
2021/05/08 06:00:23;;;;;;;12.82;7.88;;;13.80;87.70;;;;;;5139182;27;20103;-40
2021/05/08 06:02:49;;;;;;;11.35;7.88;;;13.70;87.60;;;;;;5138897;27;20032;-40
2021/05/08 06:05:15;;;;;;;15.18;8.48;;;13.70;87.60;;;;;;5139579;27;20308;-40
2021/05/08 06:07:41;;;;;;;12.13;7.30;;;13.70;87.70;;;;;;5139370;27;20037;-40
2021/05/08 06:10:09;;;;;;;9.10;5.55;;;13.70;87.50;;;;;;5139629;27;20066;-40
2021/05/08 06:12:35;;;;;;;15.02;6.75;;;13.70;87.50;;;;;;5138611;27;20051;-40
2021/05/08 06:15:00;;;;;;;15.65;6.40;;;13.70;87.40;;;;;;5139311;27;20070;-40
2021/05/08 06:17:26;;;;;;;8.88;6.28;;;13.60;87.50;;;;;;5138819;27;20086;-40
2021/05/08 06:19:52;;;;;;;11.90;7.50;;;13.60;87.60;;;;;;5139181;27;20082;-39
2021/05/08 06:22:17;;;;;;;11.57;6.35;;;13.60;88.00;;;;;;5138973;27;20157;-40
2021/05/08 06:24:43;;;;;;;14.48;6.30;;;13.60;88.20;;;;;;5138802;27;20337;-41
2021/05/08 06:27:09;;;;;;;11.80;5.82;;;13.60;88.30;;;;;;5138614;27;20027;-40
2021/05/08 06:29:38;;;;;;;9.35;6.93;;;13.60;88.30;;;;;;5138614;27;20027;-40
2021/05/08 06:32:04;;;;;;;8.95;6.32;;;13.70;88.60;;;;;;5138761;27;20098;-40
2021/05/08 06:34:30;;;;;;;13.55;8.00;;;13.70;88.40;;;;;;5138160;27;20125;-40
2021/05/08 06:36:58;;;;;;;9.07;5.55;;;13.70;88.80;;;;;;5138782;27;20055;-40
2021/05/08 06:39:24;;;;;;;6.97;5.53;;;13.80;88.70;;;;;;5136053;27;20308;-40
2021/05/08 06:41:50;;;;;;;10.50;6.22;;;13.80;88.50;;;;;;5137260;27;20047;-40
2021/05/08 06:44:16;;;;;;;9.90;6.30;;;13.80;88.80;;;;;;5137957;27;20096;-40
2021/05/08 06:46:41;;;;;;;6.97;5.13;;;13.80;88.60;;;;;;5138894;27;20031;-40
2021/05/08 06:49:07;;;;;;;7.22;5.60;;;13.80;88.40;;;;;;5133075;27;20330;-40
2021/05/08 06:51:33;;;;;;;9.45;5.57;;;13.80;88.60;;;;;;5137635;27;20482;-40
2021/05/08 06:53:59;;;;;;;11.65;6.10;;;13.80;88.30;;;;;;5137693;27;20027;-41
2021/05/08 06:56:26;;;;;;;9.68;6.00;;;13.90;88.40;;;;;;5138182;27;20034;-41
2021/05/08 06:58:52;;;;;;;12.77;6.18;;;13.90;88.40;;;;;;5137737;27;20482;-41
2021/05/08 07:01:18;;;;;;;9.43;5.13;;;13.90;88.20;;;;;;5138281;27;20318;-40
2021/05/08 07:03:44;;;;;;;10.57;7.25;;;14.00;88.20;;;;;;5119176;27;20042;-41
2021/05/08 07:06:10;;;;;;;11.70;7.00;;;13.90;88.30;;;;;;5137541;27;20031;-40
2021/05/08 07:08:35;;;;;;;7.55;5.90;;;13.90;87.90;;;;;;5137144;27;20456;-42
2021/05/08 07:11:01;;;;;;;11.40;8.02;;;13.90;87.70;;;;;;5138119;27;20050;-40
2021/05/08 07:13:27;;;;;;;7.18;5.53;;;13.90;87.80;;;;;;5137368;27;20067;-41
2021/05/08 07:15:54;;;;;;;7.93;6.70;;;13.90;87.80;;;;;;5137719;27;20073;-40
2021/05/08 07:18:20;;;;;;;9.68;6.78;;;13.90;88.10;;;;;;5137413;27;20042;-41
2021/05/08 07:20:45;;;;;;;20.52;14.25;;;13.90;88.20;;;;;;5137621;27;20311;-40
2021/05/08 07:23:11;;;;;;;11.07;7.93;;;13.80;88.00;;;;;;5136973;27;20131;-40
2021/05/08 07:25:37;;;;;;;11.15;7.55;;;13.80;88.20;;;;;;5137525;27;20303;-40
2021/05/08 07:28:08;;;;;;;10.85;7.40;;;13.80;88.90;;;;;;5136560;27;20045;-40
2021/05/08 07:30:34;;;;;;;10.20;7.10;;;13.80;88.50;;;;;;5136598;27;20080;-40
2021/05/08 07:33:00;;;;;;;12.15;7.72;;;13.80;88.50;;;;;;5135687;27;20507;-40
2021/05/08 07:35:25;;;;;;;9.77;7.03;;;13.80;88.70;;;;;;5137272;27;20050;-41
2021/05/08 07:37:51;;;;;;;11.60;7.07;;;13.80;88.60;;;;;;5136826;27;20035;-41
2021/05/08 07:40:17;;;;;;;12.07;7.47;;;13.80;88.90;;;;;;5136666;27;20075;-40
2021/05/08 07:42:43;;;;;;;11.07;7.05;;;13.90;89.00;;;;;;5137119;27;20046;-40
2021/05/08 07:45:10;;;;;;;9.75;7.13;;;13.80;88.70;;;;;;5137039;27;20027;-40
2021/05/08 07:47:36;;;;;;;11.07;7.50;;;13.80;88.70;;;;;;5136803;27;20034;-41
2021/05/08 07:50:03;;;;;;;11.27;8.52;;;13.80;88.50;;;;;;5137267;27;20023;-41
2021/05/08 07:52:28;;;;;;;16.67;9.30;;;13.80;89.10;;;;;;5136979;27;20334;-41
2021/05/08 07:54:54;;;;;;;12.32;9.25;;;13.80;89.20;;;;;;5136942;27;20055;-40
2021/05/08 07:57:19;;;;;;;14.18;7.80;;;13.80;89.40;;;;;;5136905;27;20110;-40
2021/05/08 07:59:45;;;;;;;13.15;8.60;;;13.80;89.30;;;;;;5136783;27;20061;-40
2021/05/08 08:02:11;;;;;;;11.13;7.28;;;13.80;89.60;;;;;;5136615;27;20033;-39
2021/05/08 08:04:37;;;;;;;16.33;8.05;;;13.80;89.60;;;;;;5136435;27;20019;-40
2021/05/08 08:07:02;;;;;;;15.68;9.77;;;13.80;89.40;;;;;;5136480;27;20299;-40
2021/05/08 08:09:28;;;;;;;17.50;9.73;;;13.80;89.30;;;;;;5135413;27;20026;-40
2021/05/08 08:11:54;;;;;;;16.08;8.65;;;13.80;89.30;;;;;;5136688;27;20042;-40
2021/05/08 08:14:19;;;;;;;10.52;8.65;;;13.80;89.40;;;;;;5135808;27;20027;-40
2021/05/08 08:16:45;;;;;;;12.57;8.60;;;13.90;89.50;;;;;;5136424;27;20031;-40
2021/05/08 08:19:11;;;;;;;13.68;10.32;;;13.90;89.80;;;;;;5136786;27;20418;-40
2021/05/08 08:21:37;;;;;;;13.25;9.93;;;14.00;90.00;;;;;;5136298;27;20023;-38
2021/05/08 08:24:03;;;;;;;12.50;9.57;;;14.00;89.90;;;;;;5136798;27;20019;-39
2021/05/08 08:26:28;;;;;;;14.73;9.77;;;14.00;89.60;;;;;;5137004;27;20344;-39
2021/05/08 08:28:54;;;;;;;13.65;9.88;;;14.00;89.70;;;;;;5136433;27;20031;-39
2021/05/08 08:31:20;;;;;;;14.20;9.20;;;14.10;89.80;;;;;;5136590;27;20087;-39
2021/05/08 08:33:45;;;;;;;12.63;10.10;;;14.10;89.80;;;;;;5136344;27;20270;-43
2021/05/08 08:36:11;;;;;;;12.02;9.45;;;14.20;89.90;;;;;;5136443;27;20043;-39
2021/05/08 08:38:37;;;;;;;14.18;10.93;;;14.30;89.60;;;;;;5136316;27;20031;-41
2021/05/08 08:41:02;;;;;;;13.80;10.70;;;14.30;89.50;;;;;;5136185;27;20086;-39
2021/05/08 08:43:29;;;;;;;12.68;9.60;;;14.40;89.80;;;;;;5130195;27;20035;-38
2021/05/08 08:45:55;;;;;;;15.85;12.15;;;14.50;89.50;;;;;;5134687;28;20307;-38
2021/05/08 08:48:22;;;;;;;16.60;11.70;;;14.50;89.90;;;;;;5135883;28;20038;-38
2021/05/08 08:50:49;;;;;;;14.73;12.05;;;14.60;90.10;;;;;;5136575;28;20030;-42
2021/05/08 08:53:15;;;;;;;23.60;14.55;;;14.60;90.00;;;;;;5136046;28;20329;-39
2021/05/08 08:55:52;;;;;;;22.70;13.05;;;14.80;90.10;;;;;;5136729;28;20035;-38
2021/05/08 08:58:21;;;;;;;11.52;9.43;;;14.90;89.10;;;;;;5135822;28;20133;-38
2021/05/08 09:00:47;;;;;;;12.15;9.23;;;15.00;88.40;;;;;;5131634;28;20135;-38
2021/05/08 09:03:12;;;;;;;12.82;10.35;;;15.10;87.60;;;;;;5135579;28;20422;-39
2021/05/08 09:05:38;;;;;;;15.05;12.60;;;15.20;88.00;;;;;;5135403;28;20027;-38
2021/05/08 09:08:07;;;;;;;10.13;7.72;;;15.20;87.50;;;;;;5135358;28;20023;-38
2021/05/08 09:10:33;;;;;;;8.90;8.00;;;15.20;85.90;;;;;;5136008;28;20031;-38
2021/05/08 09:13:05;;;;;;;8.73;7.35;;;15.20;84.80;;;;;;5135508;28;20051;-38
2021/05/08 09:15:32;;;;;;;13.52;9.65;;;15.10;84.50;;;;;;5117836;28;20068;-38
2021/05/08 09:17:58;;;;;;;13.23;7.68;;;15.10;84.40;;;;;;5135728;28;20031;-38
2021/05/08 09:20:24;;;;;;;8.20;5.93;;;15.10;84.70;;;;;;5135817;28;20602;-38
2021/05/08 09:22:52;;;;;;;7.32;5.40;;;15.10;84.30;;;;;;5135581;28;20035;-38
2021/05/08 09:25:19;;;;;;;8.13;5.18;;;15.10;84.20;;;;;;5135381;27;20049;-38
2021/05/08 09:27:52;;;;;;;6.05;5.25;;;15.00;83.50;;;;;;5139015;27;20030;-38
2021/05/08 09:30:22;;;;;;;7.80;4.93;;;15.00;83.30;;;;;;5140054;27;20019;-38
2021/05/08 09:32:51;;;;;;;7.30;5.57;;;15.00;83.30;;;;;;5139510;27;20030;-38
2021/05/08 09:35:20;;;;;;;6.85;5.38;;;15.00;83.10;;;;;;5139393;27;20039;-38
2021/05/08 09:37:46;;;;;;;9.02;5.85;;;15.00;83.40;;;;;;5139247;27;20049;-37
2021/05/08 09:40:26;;;;;;;6.35;4.70;;;15.00;83.70;;;;;;5137773;27;20106;-37
2021/05/08 09:42:54;;;;;;;10.80;7.45;;;15.00;83.20;;;;;;5128367;27;20084;-37
2021/05/08 09:45:22;;;;;;;6.20;5.03;;;15.00;83.70;;;;;;5128727;27;20030;-37
2021/05/08 09:47:48;;;;;;;6.40;4.15;;;15.00;82.80;;;;;;5127420;27;20109;-37
2021/05/08 09:50:15;;;;;;;5.18;3.65;;;15.00;81.30;;;;;;5128095;27;20072;-37
2021/05/08 09:52:43;;;;;;;6.35;4.80;;;15.10;80.20;;;;;;5129343;27;20032;-37
2021/05/08 09:55:10;;;;;;;6.57;4.32;;;15.10;79.80;;;;;;5127926;27;20024;-37
2021/05/08 09:57:35;;;;;;;8.27;5.93;;;15.10;79.90;;;;;;5110431;27;20038;-37
2021/05/08 10:00:01;;;;;;;8.20;4.75;;;15.20;79.60;;;;;;5129005;27;20028;-37
2021/05/08 10:02:27;;;;;;;7.50;5.53;;;15.20;78.70;;;;;;5127313;27;20164;-37
2021/05/08 10:04:58;;;;;;;8.70;5.35;;;15.10;77.60;;;;;;5128994;27;20031;-36
2021/05/08 10:07:28;;;;;;;7.13;5.32;;;14.90;76.80;;;;;;5129679;27;20038;-37
2021/05/08 10:09:59;;;;;;;6.28;5.18;;;14.70;75.50;;;;;;5127990;27;20030;-37
2021/05/08 10:12:27;;;;;;;10.75;5.55;;;14.50;75.00;;;;;;5127243;27;20411;-37
2021/05/08 10:14:55;;;;;;;7.70;5.90;;;14.30;74.70;;;;;;5128800;27;20019;-37
2021/05/08 10:17:22;;;;;;;8.02;5.80;;;14.10;74.60;;;;;;5128498;27;20398;-36
2021/05/08 10:19:55;;;;;;;10.20;5.68;;;14.00;75.20;;;;;;5126914;27;20401;-37
2021/05/08 10:22:24;;;;;;;10.48;5.57;;;13.80;76.70;;;;;;5127837;27;20427;-37
2021/05/08 10:24:50;;;;;;;7.68;6.10;;;13.80;77.20;;;;;;5127229;27;20053;-36
2021/05/08 10:27:16;;;;;;;9.10;5.85;;;13.80;77.40;;;;;;5127915;27;20028;-36
2021/05/08 10:29:44;;;;;;;12.65;8.20;;;13.80;77.50;;;;;;5128363;27;20110;-36
2021/05/08 10:32:18;;;;;;;7.82;5.65;;;13.80;77.60;;;;;;5126734;27;20411;-37
2021/05/08 10:34:53;;;;;;;9.15;6.07;;;13.80;77.40;;;;;;5126856;27;20050;-38
2021/05/08 10:37:20;;;;;;;6.18;4.30;;;13.80;77.20;;;;;;5127496;27;20050;-36
2021/05/08 10:39:58;;;;;;;4.95;3.33;;;13.70;76.60;;;;;;5126360;27;20105;-36
2021/05/08 10:42:43;;;;;;;6.50;4.63;;;13.60;75.10;;;;;;5126931;27;20084;-36
2021/05/08 10:45:17;;;;;;;4.72;2.72;;;13.70;75.00;;;;;;5128804;27;20015;-36
2021/05/08 10:50:38;;;;;;;2.83;2.13;;;13.50;74.00;;;;;;5128296;27;20135;-35
2021/05/08 10:53:18;;;;;;;2.80;2.10;;;13.50;71.70;;;;;;5127923;27;20031;-35
2021/05/08 10:56:04;;;;;;;2.45;2.08;;;13.30;71.10;;;;;;5129129;27;20043;-35
2021/05/08 10:58:32;;;;;;;2.80;2.00;;;13.20;70.70;;;;;;5125830;27;20502;-35
2021/05/08 11:01:05;;;;;;;2.63;2.22;;;13.10;70.80;;;;;;5108916;27;20026;-35
2021/05/08 11:03:54;;;;;;;4.70;3.03;;;13.00;71.30;;;;;;5126325;27;20096;-36
2021/05/08 11:06:19;;;;;;;2.67;2.35;;;12.90;71.50;;;;;;5118445;27;20315;-36
2021/05/08 11:08:50;;;;;;;3.78;2.25;;;12.90;71.50;;;;;;5125811;27;20016;-36
2021/05/08 11:11:22;;;;;;;2.90;2.53;;;12.90;71.50;;;;;;5127482;27;20422;-36
2021/05/08 11:13:53;;;;;;;3.67;2.35;;;12.90;71.90;;;;;;5127565;27;20038;-35
2021/05/08 11:16:26;;;;;;;2.83;2.22;;;12.90;71.90;;;;;;5127952;27;20024;-35
2021/05/08 11:18:53;;;;;;;5.65;3.28;;;13.00;72.10;;;;;;5126366;27;20349;-35
2021/05/08 11:21:19;;;;;;;4.00;2.38;;;13.00;72.50;;;;;;5127016;27;20028;-36
2021/05/08 11:24:01;;;;;;;4.55;2.88;;;13.10;72.50;;;;;;5127673;27;20035;-36
2021/05/08 11:26:30;;;;;;;4.55;3.42;;;13.20;72.00;;;;;;5127544;27;20020;-35
2021/05/08 11:28:55;;;;;;;4.78;2.22;;;13.30;72.50;;;;;;5125858;27;20058;-36
2021/05/08 11:31:27;;;;;;;4.53;2.30;;;13.40;72.20;;;;;;5126541;27;20043;-35
2021/05/08 11:34:02;;;;;;;5.72;2.20;;;13.60;72.20;;;;;;5126429;27;20135;-36
2021/05/08 11:36:28;;;;;;;5.35;2.35;;;13.80;71.10;;;;;;5125452;27;20035;-36
2021/05/08 11:39:10;;;;;;;4.32;2.63;;;13.90;70.30;;;;;;5108807;27;20030;-36
2021/05/08 11:41:36;;;;;;;4.53;2.25;;;14.00;69.80;;;;;;5126362;27;20377;-36
2021/05/08 11:44:02;;;;;;;2.58;1.95;;;14.10;70.10;;;;;;5107830;27;20438;-36
2021/05/08 11:46:29;;;;;;;2.88;2.25;;;14.10;68.90;;;;;;5128022;27;20333;-35
2021/05/08 11:48:55;;;;;;;2.05;1.70;;;14.10;67.30;;;;;;5125471;27;20305;-36
2021/05/08 11:51:21;;;;;;;3.05;2.72;;;14.10;67.00;;;;;;5126060;27;20101;-36
2021/05/08 11:54:07;;;;;;;6.03;2.90;;;14.10;66.80;;;;;;5126910;27;20027;-35
2021/05/08 11:56:33;;;;;;;3.10;2.38;;;14.00;66.80;;;;;;5126315;27;20116;-36
2021/05/08 11:59:00;;;;;;;2.10;1.90;;;14.00;66.90;;;;;;5126384;27;20027;-36
2021/05/08 12:01:29;;;;;;;2.50;1.92;;;13.90;66.40;;;;;;5127642;27;20038;-35
2021/05/08 12:03:55;;;;;;;2.45;2.00;;;13.90;66.40;;;;;;5125660;27;20124;-36
2021/05/08 12:06:21;;;;;;;2.20;1.48;;;13.90;66.70;;;;;;5126196;27;20076;-36
2021/05/08 12:08:47;;;;;;;7.00;2.13;;;14.00;67.20;;;;;;5127251;27;20028;-35
2021/05/08 12:11:17;;;;;;;5.25;1.60;;;14.10;67.20;;;;;;5108435;27;20020;-36
2021/05/08 12:13:43;;;;;;;2.10;1.88;;;14.30;65.60;;;;;;5126687;27;20446;-35
2021/05/08 12:16:10;;;;;;;4.38;3.25;;;14.40;65.00;;;;;;5125020;27;20035;-35
2021/05/08 12:18:36;;;;;;;1.90;1.27;;;14.50;64.50;;;;;;5126180;27;20449;-36
2021/05/08 12:21:02;;;;;;;5.28;2.45;;;14.60;64.10;;;;;;5126585;27;20092;-35
2021/05/08 12:23:29;;;;;;;4.05;2.30;;;14.80;63.40;;;;;;5124271;27;20350;-36
2021/05/08 12:26:15;;;;;;;3.92;2.63;;;14.90;63.20;;;;;;5126905;27;20352;-36
2021/05/08 12:28:44;;;;;;;4.38;2.20;;;15.10;63.20;;;;;;5126229;27;20424;-35
2021/05/08 12:31:32;;;;;;;8.65;4.82;;;15.30;62.80;;;;;;5124480;27;20027;-36
2021/05/08 12:34:08;;;;;;;7.60;1.70;;;15.40;62.10;;;;;;5125391;27;20023;-35
2021/05/08 12:36:35;;;;;;;4.95;1.77;;;15.50;60.80;;;;;;5120351;27;20488;-36
2021/05/08 12:39:21;;;;;;;4.18;2.33;;;15.50;59.50;;;;;;5115623;28;20055;-36
2021/05/08 12:42:05;;;;;;;8.35;3.25;;;15.40;58.80;;;;;;5115884;28;20039;-35
2021/05/08 12:44:32;;;;;;;2.78;2.13;;;15.30;58.40;;;;;;5115620;28;20019;-36